createdAt,value
2016-11-30T00:00:03.405Z,57.58
2016-11-30T00:01:03.101Z,57.87
2016-11-30T00:02:03.424Z,57.71
2016-11-30T00:03:03.127Z,57.8
2016-11-30T00:04:03.135Z,57.52
2016-11-30T00:05:03.145Z,57.11
2016-11-30T00:06:03.156Z,57.3
2016-11-30T00:07:03.478Z,57.87
2016-11-30T00:08:03.510Z,57.87
2016-11-30T00:09:03.194Z,57.87
2016-11-30T00:10:03.194Z,57.68
2016-11-30T00:11:03.205Z,57.68
2016-11-30T00:12:03.220Z,57.68
2016-11-30T00:13:03.542Z,57.68
2016-11-30T00:14:03.553Z,58.62
2016-11-30T00:15:03.577Z,58.62
2016-11-30T00:16:03.572Z,58.72
2016-11-30T00:17:03.587Z,58.53
2016-11-30T00:18:03.594Z,58.72
2016-11-30T00:19:03.606Z,58.62
2016-11-30T00:20:03.616Z,58.81
2016-11-30T00:21:03.628Z,58.81
2016-11-30T00:22:03.641Z,59
2016-11-30T00:23:03.648Z,59.66
2016-11-30T00:24:03.656Z,59.95
2016-11-30T00:25:03.671Z,60.14
2016-11-30T00:26:03.678Z,60.11
2016-11-30T00:27:03.371Z,59.95
2016-11-30T00:28:03.383Z,60.14
2016-11-30T00:29:03.762Z,59.57
2016-11-30T00:30:03.718Z,59.09
2016-11-30T00:31:03.416Z,59
2016-11-30T00:32:03.742Z,59.09
2016-11-30T00:33:03.772Z,59.28
2016-11-30T00:34:03.760Z,59.47
2016-11-30T00:35:03.454Z,59.66
2016-11-30T00:36:03.783Z,60.04
2016-11-30T00:37:03.790Z,60.14
2016-11-30T00:38:03.488Z,59.92
2016-11-30T00:39:03.813Z,59.66
2016-11-30T00:40:03.530Z,60.14
2016-11-30T00:41:03.532Z,59.57
2016-11-30T00:42:03.528Z,59
2016-11-30T00:43:03.537Z,58.72
2016-11-30T00:44:03.550Z,59
2016-11-30T00:45:03.873Z,59.66
2016-11-30T00:46:03.566Z,59.76
2016-11-30T00:47:03.584Z,58.81
2016-11-30T00:48:03.597Z,59.47
2016-11-30T00:49:03.599Z,59.09
2016-11-30T00:50:03.608Z,59
2016-11-30T00:51:03.936Z,59.19
2016-11-30T00:52:03.947Z,58.72
2016-11-30T00:53:03.640Z,59.19
2016-11-30T00:54:03.653Z,59.57
2016-11-30T00:55:03.979Z,58.81
2016-11-30T00:56:03.674Z,58.62
2016-11-30T00:57:04.000Z,58.34
2016-11-30T00:58:03.699Z,58.62
2016-11-30T00:59:03.706Z,58.53
2016-11-30T01:00:03.713Z,59.19
2016-11-30T01:01:04.040Z,58.62
2016-11-30T01:02:04.050Z,58.44
2016-11-30T01:03:03.742Z,58.72
2016-11-30T01:04:03.756Z,58.53
2016-11-30T01:05:04.080Z,58.62
2016-11-30T01:06:03.776Z,59
2016-11-30T01:07:03.782Z,59.09
2016-11-30T01:08:04.116Z,58.91
2016-11-30T01:09:03.809Z,59
2016-11-30T01:10:03.817Z,58.62
2016-11-30T01:11:04.144Z,58.53
2016-11-30T01:12:03.834Z,58.53
2016-11-30T01:13:04.159Z,58.44
2016-11-30T01:14:04.175Z,59.09
2016-11-30T01:15:03.868Z,59.09
2016-11-30T01:16:03.878Z,58.81
2016-11-30T01:17:04.202Z,59.09
2016-11-30T01:18:03.904Z,58.62
2016-11-30T01:19:03.949Z,58.25
2016-11-30T01:20:04.244Z,57.68
2016-11-30T01:21:03.928Z,58.34
2016-11-30T01:22:04.251Z,58.06
2016-11-30T01:23:03.945Z,58.53
2016-11-30T01:24:03.958Z,59.09
2016-11-30T01:25:03.971Z,59.06
2016-11-30T01:26:04.295Z,59.82
2016-11-30T01:27:03.986Z,58.81
2016-11-30T01:28:03.996Z,59.16
2016-11-30T01:29:04.322Z,59.35
2016-11-30T01:30:04.334Z,60.01
2016-11-30T01:31:04.344Z,60.01
2016-11-30T01:32:04.039Z,59.82
2016-11-30T01:33:04.387Z,60.3
2016-11-30T01:34:04.373Z,60.67
2016-11-30T01:35:04.069Z,60.01
2016-11-30T01:36:04.080Z,60.11
2016-11-30T01:37:04.087Z,59.63
2016-11-30T01:38:04.419Z,59.54
2016-11-30T01:39:04.110Z,59.82
2016-11-30T01:40:04.453Z,59.73
2016-11-30T01:41:04.130Z,59.92
2016-11-30T01:42:04.456Z,59.92
2016-11-30T01:43:04.182Z,59.82
2016-11-30T01:44:04.158Z,60.11
2016-11-30T01:45:04.488Z,60.11
2016-11-30T01:46:04.180Z,59.63
2016-11-30T01:47:04.516Z,59.73
2016-11-30T01:48:04.198Z,59.92
2016-11-30T01:49:04.238Z,59.82
2016-11-30T01:50:04.542Z,59.82
2016-11-30T01:51:04.543Z,60.39
2016-11-30T01:52:04.240Z,59.82
2016-11-30T01:53:04.565Z,59.82
2016-11-30T01:54:04.581Z,59.73
2016-11-30T01:55:04.269Z,59.92
2016-11-30T01:56:04.281Z,59.92
2016-11-30T01:57:04.606Z,59.82
2016-11-30T01:58:04.616Z,60.01
2016-11-30T01:59:04.308Z,59.82
2016-11-30T02:00:04.319Z,60.2
2016-11-30T02:01:04.648Z,60.11
2016-11-30T02:02:04.338Z,59.73
2016-11-30T02:03:04.665Z,59.82
2016-11-30T02:04:04.363Z,59.92
2016-11-30T02:05:04.372Z,60.3
2016-11-30T02:06:04.700Z,60.58
2016-11-30T02:07:04.388Z,60.58
2016-11-30T02:08:04.406Z,60.96
2016-11-30T02:09:04.408Z,60.39
2016-11-30T02:10:04.733Z,60.3
2016-11-30T02:11:04.745Z,60.3
2016-11-30T02:12:04.777Z,60.39
2016-11-30T02:13:04.447Z,60.49
2016-11-30T02:14:04.458Z,61.15
2016-11-30T02:15:04.472Z,60.77
2016-11-30T02:16:04.478Z,60.67
2016-11-30T02:17:04.489Z,60.49
2016-11-30T02:18:04.818Z,60.39
2016-11-30T02:19:04.845Z,60.77
2016-11-30T02:20:04.538Z,60.39
2016-11-30T02:21:04.843Z,61.15
2016-11-30T02:22:04.857Z,61.05
2016-11-30T02:23:04.869Z,61.15
2016-11-30T02:24:04.873Z,61.05
2016-11-30T02:25:04.569Z,60.58
2016-11-30T02:26:04.907Z,60.96
2016-11-30T02:27:04.903Z,61.05
2016-11-30T02:28:04.600Z,60.86
2016-11-30T02:29:04.607Z,61.15
2016-11-30T02:30:04.938Z,60.96
2016-11-30T02:31:04.626Z,61.05
2016-11-30T02:32:04.635Z,60.67
2016-11-30T02:33:04.657Z,61.05
2016-11-30T02:34:04.973Z,61.43
2016-11-30T02:35:04.982Z,61.52
2016-11-30T02:36:04.674Z,61.24
2016-11-30T02:37:04.686Z,60.86
2016-11-30T02:38:05.010Z,60.96
2016-11-30T02:39:04.707Z,61.15
2016-11-30T02:40:05.040Z,60.67
2016-11-30T02:41:05.040Z,60.96
2016-11-30T02:42:05.049Z,60.58
2016-11-30T02:43:04.746Z,60.2
2016-11-30T02:44:04.756Z,60.3
2016-11-30T02:45:04.764Z,60.96
2016-11-30T02:46:04.774Z,60.11
2016-11-30T02:47:04.786Z,59.73
2016-11-30T02:48:04.800Z,60.01
2016-11-30T02:49:05.119Z,59.82
2016-11-30T02:50:05.130Z,60.01
2016-11-30T02:51:05.138Z,60.01
2016-11-30T02:52:05.148Z,59.82
2016-11-30T02:53:04.844Z,60.3
2016-11-30T02:54:04.857Z,60.96
2016-11-30T02:55:05.178Z,61.24
2016-11-30T02:56:05.191Z,61.33
2016-11-30T02:57:04.882Z,61.52
2016-11-30T02:58:05.210Z,61.05
2016-11-30T02:59:04.905Z,61.15
2016-11-30T03:00:04.912Z,61.43
2016-11-30T03:01:04.926Z,61.33
2016-11-30T03:02:05.251Z,61.05
2016-11-30T03:03:05.261Z,61.05
2016-11-30T03:04:05.270Z,61.15
2016-11-30T03:05:05.279Z,61.61
2016-11-30T03:06:05.289Z,61.52
2016-11-30T03:07:05.299Z,61.52
2016-11-30T03:08:04.994Z,61.43
2016-11-30T03:09:05.006Z,61.15
2016-11-30T03:10:05.012Z,61.08
2016-11-30T03:11:05.359Z,60.8
2016-11-30T03:12:05.036Z,61.08
2016-11-30T03:13:05.360Z,61.08
2016-11-30T03:14:05.052Z,60.33
2016-11-30T03:15:05.063Z,60.23
2016-11-30T03:16:05.388Z,59.95
2016-11-30T03:17:05.427Z,59.85
2016-11-30T03:18:05.426Z,59.95
2016-11-30T03:19:05.101Z,59.85
2016-11-30T03:20:05.428Z,59.85
2016-11-30T03:21:05.439Z,59.76
2016-11-30T03:22:05.447Z,60.04
2016-11-30T03:23:05.151Z,60.04
2016-11-30T03:24:05.470Z,60.14
2016-11-30T03:25:05.162Z,60.23
2016-11-30T03:26:05.172Z,60.33
2016-11-30T03:27:05.499Z,60.04
2016-11-30T03:28:05.191Z,60.04
2016-11-30T03:29:05.519Z,60.23
2016-11-30T03:30:05.213Z,60.14
2016-11-30T03:31:05.541Z,59.95
2016-11-30T03:32:05.556Z,60.04
2016-11-30T03:33:05.559Z,59.85
2016-11-30T03:34:05.261Z,60.01
2016-11-30T03:35:05.577Z,60.39
2016-11-30T03:36:05.274Z,60.3
2016-11-30T03:37:05.598Z,60.01
2016-11-30T03:38:05.643Z,59.82
2016-11-30T03:39:05.622Z,59.73
2016-11-30T03:40:05.635Z,60.14
2016-11-30T03:41:05.322Z,60.01
2016-11-30T03:42:05.363Z,60.3
2016-11-30T03:43:05.345Z,60.39
2016-11-30T03:44:05.354Z,59.95
2016-11-30T03:45:05.681Z,59.57
2016-11-30T03:46:05.375Z,59.57
2016-11-30T03:47:05.699Z,59.47
2016-11-30T03:48:05.393Z,58.91
2016-11-30T03:49:05.719Z,58.91
2016-11-30T03:50:05.752Z,58.62
2016-11-30T03:51:05.740Z,59
2016-11-30T03:52:05.435Z,58.53
2016-11-30T03:53:05.762Z,59.09
2016-11-30T03:54:05.454Z,59.16
2016-11-30T03:55:05.468Z,60.01
2016-11-30T03:56:05.473Z,60.39
2016-11-30T03:57:05.500Z,60.58
2016-11-30T03:58:05.512Z,60.39
2016-11-30T03:59:05.820Z,60.39
2016-11-30T04:00:05.833Z,59.82
2016-11-30T04:01:05.843Z,60.04
2016-11-30T04:02:05.537Z,59.66
2016-11-30T04:03:05.865Z,59.76
2016-11-30T04:04:05.887Z,59.73
2016-11-30T04:05:05.580Z,60.01
2016-11-30T04:06:05.577Z,59.82
2016-11-30T04:07:05.588Z,59.73
2016-11-30T04:08:05.914Z,59.82
2016-11-30T04:09:05.607Z,60.3
2016-11-30T04:10:05.935Z,61.24
2016-11-30T04:11:05.632Z,61.24
2016-11-30T04:12:05.643Z,60.67
2016-11-30T04:13:05.961Z,61.05
2016-11-30T04:14:05.655Z,60.86
2016-11-30T04:15:05.668Z,60.04
2016-11-30T04:16:05.992Z,59.95
2016-11-30T04:17:06.002Z,59.76
2016-11-30T04:18:06.014Z,59.76
2016-11-30T04:19:05.713Z,60.61
2016-11-30T04:20:06.032Z,60.42
2016-11-30T04:21:06.040Z,61.27
2016-11-30T04:22:05.738Z,60.89
2016-11-30T04:23:05.747Z,61.15
2016-11-30T04:24:05.756Z,60.77
2016-11-30T04:25:06.091Z,60.33
2016-11-30T04:26:06.091Z,60.33
2016-11-30T04:27:05.787Z,60.23
2016-11-30T04:28:05.799Z,60.61
2016-11-30T04:29:05.806Z,60.67
2016-11-30T04:30:06.133Z,60.3
2016-11-30T04:31:06.144Z,60.23
2016-11-30T04:32:05.838Z,60.7
2016-11-30T04:33:05.850Z,60.23
2016-11-30T04:34:05.856Z,60.61
2016-11-30T04:35:05.866Z,60.14
2016-11-30T04:36:05.875Z,59.95
2016-11-30T04:37:05.904Z,59.95
2016-11-30T04:38:05.898Z,59.95
2016-11-30T04:39:05.919Z,60.04
2016-11-30T04:40:05.923Z,59.85
2016-11-30T04:41:05.924Z,60.33
2016-11-30T04:42:05.934Z,60.61
2016-11-30T04:43:05.943Z,60.52
2016-11-30T04:44:06.371Z,60.42
2016-11-30T04:45:06.282Z,60.52
2016-11-30T04:46:06.290Z,60.01
2016-11-30T04:47:06.297Z,60.11
2016-11-30T04:48:06.312Z,60.3
2016-11-30T04:49:06.323Z,60.11
2016-11-30T04:50:06.013Z,60.58
2016-11-30T04:51:06.337Z,60.86
2016-11-30T04:52:06.035Z,60.86
2016-11-30T04:53:06.360Z,60.96
2016-11-30T04:54:06.367Z,60.77
2016-11-30T04:55:06.062Z,61.05
2016-11-30T04:56:06.073Z,60.67
2016-11-30T04:57:06.399Z,61.15
2016-11-30T04:58:06.406Z,60.67
2016-11-30T04:59:06.102Z,61.05
2016-11-30T05:00:06.432Z,61.24
2016-11-30T05:01:06.436Z,61.15
2016-11-30T05:02:06.133Z,61.61
2016-11-30T05:03:06.453Z,61.61
2016-11-30T05:04:06.466Z,62.09
2016-11-30T05:05:06.473Z,62.18
2016-11-30T05:06:06.169Z,62.09
2016-11-30T05:07:06.495Z,61.9
2016-11-30T05:08:06.187Z,62.31
2016-11-30T05:09:06.512Z,61.8
2016-11-30T05:10:06.525Z,61.71
2016-11-30T05:11:06.531Z,61.55
2016-11-30T05:12:06.225Z,61.55
2016-11-30T05:13:06.235Z,61.52
2016-11-30T05:14:06.247Z,61.52
2016-11-30T05:15:06.574Z,61.9
2016-11-30T05:16:06.270Z,62.37
2016-11-30T05:17:06.274Z,62.59
2016-11-30T05:18:06.286Z,62.59
2016-11-30T05:19:06.293Z,62.69
2016-11-30T05:20:06.630Z,62.21
2016-11-30T05:21:06.628Z,62.02
2016-11-30T05:22:06.328Z,62.12
2016-11-30T05:23:06.648Z,62.31
2016-11-30T05:24:06.660Z,61.93
2016-11-30T05:25:06.356Z,62.02
2016-11-30T05:26:06.683Z,62.12
2016-11-30T05:27:06.373Z,62.12
2016-11-30T05:28:06.700Z,62.02
2016-11-30T05:29:06.710Z,62.02
2016-11-30T05:30:06.722Z,62.21
2016-11-30T05:31:06.415Z,61.93
2016-11-30T05:32:06.759Z,61.46
2016-11-30T05:33:06.748Z,61.46
2016-11-30T05:34:06.442Z,60.99
2016-11-30T05:35:06.454Z,61.08
2016-11-30T05:36:21.351Z,61.18
2016-11-30T05:37:06.474Z,61.55
2016-11-30T05:38:06.483Z,61.55
2016-11-30T05:39:06.839Z,61.46
2016-11-30T05:40:06.510Z,61.65
2016-11-30T05:41:06.829Z,61.46
2016-11-30T05:42:06.526Z,60.7
2016-11-30T05:43:06.535Z,60.89
2016-11-30T05:44:06.546Z,60.99
2016-11-30T05:45:06.869Z,60.89
2016-11-30T05:46:06.889Z,61.27
2016-11-30T05:47:06.896Z,60.67
2016-11-30T05:48:06.896Z,60.58
2016-11-30T05:49:06.593Z,61.52
2016-11-30T05:50:06.605Z,61.43
2016-11-30T05:51:06.932Z,61.52
2016-11-30T05:52:06.624Z,61.43
2016-11-30T05:53:06.635Z,61.46
2016-11-30T05:54:06.643Z,61.27
2016-11-30T05:55:06.968Z,61.55
2016-11-30T05:56:06.662Z,61.46
2016-11-30T05:57:06.990Z,61.65
2016-11-30T05:58:06.996Z,61.27
2016-11-30T05:59:07.007Z,61.52
2016-11-30T06:00:06.702Z,61.52
2016-11-30T06:01:07.028Z,62.18
2016-11-30T06:02:07.239Z,61.9
2016-11-30T06:03:06.729Z,61.9
2016-11-30T06:04:07.057Z,61.9
2016-11-30T06:05:06.754Z,61.52
2016-11-30T06:06:06.765Z,61.52
2016-11-30T06:07:06.768Z,61.43
2016-11-30T06:08:06.778Z,61.43
2016-11-30T06:09:06.791Z,61.61
2016-11-30T06:10:06.799Z,61.18
2016-11-30T06:11:06.808Z,61.05
2016-11-30T06:12:07.135Z,61.43
2016-11-30T06:13:06.828Z,61.24
2016-11-30T06:14:06.837Z,61.52
2016-11-30T06:15:06.848Z,61.46
2016-11-30T06:16:07.172Z,61.83
2016-11-30T06:17:06.867Z,61.74
2016-11-30T06:18:07.215Z,62.21
2016-11-30T06:19:07.205Z,61.65
2016-11-30T06:20:07.213Z,62.02
2016-11-30T06:21:07.221Z,62.12
2016-11-30T06:22:07.231Z,62.02
2016-11-30T06:23:06.927Z,62.12
2016-11-30T06:24:06.935Z,62.12
2016-11-30T06:25:07.280Z,61.55
2016-11-30T06:26:07.270Z,61.74
2016-11-30T06:27:07.288Z,61.65
2016-11-30T06:28:07.298Z,61.65
2016-11-30T06:29:06.987Z,61.46
2016-11-30T06:30:07.001Z,61.65
2016-11-30T06:31:07.322Z,61.65
2016-11-30T06:32:07.345Z,61.55
2016-11-30T06:33:07.041Z,61.46
2016-11-30T06:34:07.359Z,61.55
2016-11-30T06:35:07.046Z,61.83
2016-11-30T06:36:07.057Z,61.46
2016-11-30T06:37:07.385Z,61.65
2016-11-30T06:38:07.397Z,61.55
2016-11-30T06:39:07.412Z,61.27
2016-11-30T06:40:07.416Z,60.99
2016-11-30T06:41:07.107Z,61.18
2016-11-30T06:42:07.433Z,61.08
2016-11-30T06:43:07.448Z,61.27
2016-11-30T06:44:07.451Z,61.65
2016-11-30T06:45:07.465Z,61.65
2016-11-30T06:46:07.159Z,60.99
2016-11-30T06:47:07.172Z,61.08
2016-11-30T06:48:07.496Z,61.65
2016-11-30T06:49:07.504Z,60.7
2016-11-30T06:50:07.200Z,61.27
2016-11-30T06:51:07.208Z,61.55
2016-11-30T06:52:07.220Z,61.55
2016-11-30T06:53:07.545Z,61.74
2016-11-30T06:54:07.239Z,61.65
2016-11-30T06:55:07.250Z,62.02
2016-11-30T06:56:07.259Z,62.21
2016-11-30T06:57:07.270Z,62.12
2016-11-30T06:58:07.626Z,61.93
2016-11-30T06:59:07.607Z,62.12
2016-11-30T07:00:07.620Z,62.12
2016-11-30T07:01:07.629Z,62.12
2016-11-30T07:02:07.322Z,62.78
2016-11-30T07:03:07.331Z,62.31
2016-11-30T07:04:07.341Z,62.78
2016-11-30T07:05:07.349Z,62.78
2016-11-30T07:06:07.677Z,63.07
2016-11-30T07:07:07.690Z,63.54
2016-11-30T07:08:07.385Z,63.26
2016-11-30T07:09:07.393Z,63.16
2016-11-30T07:10:07.730Z,63.73
2016-11-30T07:11:07.729Z,64.39
2016-11-30T07:12:07.425Z,64.11
2016-11-30T07:13:07.749Z,64.01
2016-11-30T07:14:07.760Z,64.01
2016-11-30T07:15:07.772Z,64.01
2016-11-30T07:16:07.781Z,63.82
2016-11-30T07:17:07.795Z,63.35
2016-11-30T07:18:07.802Z,63.54
2016-11-30T07:19:07.811Z,63.64
2016-11-30T07:20:07.509Z,63.54
2016-11-30T07:21:07.833Z,63.35
2016-11-30T07:22:07.843Z,63.26
2016-11-30T07:23:07.538Z,62.69
2016-11-30T07:24:07.548Z,62.59
2016-11-30T07:25:07.560Z,62.78
2016-11-30T07:26:07.574Z,63.07
2016-11-30T07:27:07.580Z,62.59
2016-11-30T07:28:07.608Z,62.34
2016-11-30T07:29:07.916Z,62.44
2016-11-30T07:30:07.610Z,62.82
2016-11-30T07:31:07.625Z,62.82
2016-11-30T07:32:07.947Z,63.1
2016-11-30T07:33:07.972Z,62.72
2016-11-30T07:34:07.982Z,62.53
2016-11-30T07:35:07.676Z,62.72
2016-11-30T07:36:07.993Z,62.25
2016-11-30T07:37:07.687Z,62.15
2016-11-30T07:38:08.014Z,62.15
2016-11-30T07:39:07.704Z,62.15
2016-11-30T07:40:08.036Z,62.15
2016-11-30T07:41:07.729Z,62.53
2016-11-30T07:42:08.054Z,62.72
2016-11-30T07:43:08.070Z,63.1
2016-11-30T07:44:08.078Z,62.82
2016-11-30T07:45:08.090Z,62.91
2016-11-30T07:46:07.780Z,62.82
2016-11-30T07:47:08.109Z,62.82
2016-11-30T07:48:08.120Z,62.82
2016-11-30T07:49:08.131Z,63.01
2016-11-30T07:50:08.139Z,62.72
2016-11-30T07:51:08.153Z,62.53
2016-11-30T07:52:08.163Z,63.2
2016-11-30T07:53:07.860Z,63.1
2016-11-30T07:54:07.867Z,62.63
2016-11-30T07:55:08.197Z,62.82
2016-11-30T07:56:07.893Z,62.63
2016-11-30T07:57:08.218Z,61.96
2016-11-30T07:58:07.916Z,62.06
2016-11-30T07:59:07.923Z,62.72
2016-11-30T08:00:08.249Z,62.44
2016-11-30T08:01:07.948Z,62.72
2016-11-30T08:02:07.956Z,62.34
2016-11-30T08:03:07.972Z,61.87
2016-11-30T08:04:08.294Z,62.28
2016-11-30T08:05:07.988Z,61.87
2016-11-30T08:06:08.319Z,62.34
2016-11-30T08:07:08.346Z,62.28
2016-11-30T08:08:08.023Z,61.99
2016-11-30T08:09:08.348Z,61.9
2016-11-30T08:10:08.360Z,61.9
2016-11-30T08:11:08.055Z,62.18
2016-11-30T08:12:08.066Z,61.9
2016-11-30T08:13:08.396Z,61.71
2016-11-30T08:14:08.090Z,61.9
2016-11-30T08:15:08.101Z,61.33
2016-11-30T08:16:08.427Z,61.05
2016-11-30T08:17:08.440Z,61.99
2016-11-30T08:18:08.449Z,61.71
2016-11-30T08:19:08.462Z,61.8
2016-11-30T08:20:08.161Z,61.24
2016-11-30T08:21:08.487Z,61.24
2016-11-30T08:22:08.180Z,60.86
2016-11-30T08:23:08.507Z,61.15
2016-11-30T08:24:08.519Z,60.96
2016-11-30T08:25:08.231Z,60.48
2016-11-30T08:26:08.237Z,60.29
2016-11-30T08:27:08.553Z,61.05
2016-11-30T08:28:08.570Z,60.96
2016-11-30T08:29:08.261Z,61.08
2016-11-30T08:30:08.586Z,60.51
2016-11-30T08:31:08.285Z,60.13
2016-11-30T08:32:08.612Z,59.84
2016-11-30T08:33:08.310Z,60.22
2016-11-30T08:34:08.635Z,60.03
2016-11-30T08:35:08.333Z,59.94
2016-11-30T08:36:08.345Z,60.03
2016-11-30T08:37:08.671Z,60.03
2016-11-30T08:38:08.370Z,59.75
2016-11-30T08:39:08.700Z,58.71
2016-11-30T08:40:08.706Z,59.28
2016-11-30T08:41:08.405Z,59.19
2016-11-30T08:42:08.733Z,59.09
2016-11-30T08:43:08.744Z,58.9
2016-11-30T08:44:08.439Z,59.75
2016-11-30T08:45:08.453Z,60.03
2016-11-30T08:46:08.798Z,60.13
2016-11-30T08:47:08.494Z,60.41
2016-11-30T08:48:08.490Z,60.16
2016-11-30T08:49:08.501Z,60.16
2016-11-30T08:50:08.831Z,59.78
2016-11-30T08:51:08.529Z,60.16
2016-11-30T08:52:08.536Z,60.06
2016-11-30T08:53:08.868Z,59.12
2016-11-30T08:54:08.562Z,58.45
2016-11-30T08:55:08.888Z,58.65
2016-11-30T08:56:08.592Z,59.03
2016-11-30T08:57:08.603Z,59.12
2016-11-30T08:58:08.927Z,59.12
2016-11-30T08:59:08.624Z,58.55
2016-11-30T09:00:08.953Z,58.36
2016-11-30T09:01:08.648Z,57.92
2016-11-30T09:02:08.976Z,58.2
2016-11-30T09:03:09.018Z,58.58
2016-11-30T09:04:09.024Z,58.01
2016-11-30T09:05:09.043Z,58.11
2016-11-30T09:06:08.714Z,56.9
2016-11-30T09:07:09.041Z,56.81
2016-11-30T09:08:08.739Z,56.62
2016-11-30T09:09:08.754Z,55.79
2016-11-30T09:10:09.086Z,54.18
2016-11-30T09:11:08.782Z,53.23
2016-11-30T09:12:09.109Z,51.64
2016-11-30T09:13:09.124Z,50.98
2016-11-30T09:14:08.823Z,51.1
2016-11-30T09:15:08.838Z,49.96
2016-11-30T09:16:08.859Z,49.39
2016-11-30T09:17:09.185Z,49.68
2016-11-30T09:18:08.884Z,49.39
2016-11-30T09:19:09.217Z,49.29
2016-11-30T09:20:08.915Z,48.63
2016-11-30T09:21:08.928Z,48.63
2016-11-30T09:22:08.961Z,47.99
2016-11-30T09:23:09.301Z,47.71
2016-11-30T09:24:08.984Z,47.71
2016-11-30T09:25:08.990Z,47.8
2016-11-30T09:26:09.008Z,47.71
2016-11-30T09:27:09.024Z,47.63
2016-11-30T09:28:09.036Z,47.25
2016-11-30T09:29:09.385Z,45.45
2016-11-30T09:30:09.071Z,44.61
2016-11-30T09:31:09.083Z,43.28
2016-11-30T09:32:09.104Z,43.28
2016-11-30T09:33:09.437Z,42.71
2016-11-30T09:34:09.134Z,43.38
2016-11-30T09:35:09.179Z,42.71
2016-11-30T09:36:09.177Z,41.88
2016-11-30T09:37:09.505Z,41.4
2016-11-30T09:38:09.204Z,40.26
2016-11-30T09:39:09.551Z,40.37
2016-11-30T09:40:09.562Z,40.56
2016-11-30T09:41:09.590Z,40.09
2016-11-30T09:42:09.278Z,40.18
2016-11-30T09:43:09.620Z,40.11
2016-11-30T09:44:09.629Z,40.01
2016-11-30T09:45:09.646Z,39.34
2016-11-30T09:46:09.345Z,38.68
2016-11-30T09:47:09.693Z,38.78
2016-11-30T09:48:09.720Z,38.29
2016-11-30T09:49:09.407Z,38.18
2016-11-30T09:50:09.429Z,38.95
2016-11-30T09:51:09.442Z,39.14
2016-11-30T09:52:09.785Z,38.37
2016-11-30T09:53:09.794Z,38.29
2016-11-30T09:54:09.498Z,37.54
2016-11-30T09:55:09.846Z,37.15
2016-11-30T09:56:09.538Z,37.99
2016-11-30T09:57:09.871Z,38.28
2016-11-30T09:58:09.898Z,39.34
2016-11-30T09:59:09.910Z,39.15
2016-11-30T10:00:09.918Z,38.78
2016-11-30T10:01:09.943Z,38.39
2016-11-30T10:02:09.642Z,38.12
2016-11-30T10:03:09.978Z,37.08
2016-11-30T10:04:09.995Z,37.17
2016-11-30T10:05:09.698Z,37.73
2016-11-30T10:06:09.715Z,37.84
2016-11-30T10:07:10.069Z,37.84
2016-11-30T10:08:10.066Z,37.08
2016-11-30T10:09:09.773Z,37.17
2016-11-30T10:10:10.105Z,37.17
2016-11-30T10:11:09.819Z,37.65
2016-11-30T10:12:10.142Z,37.65
2016-11-30T10:13:09.858Z,37.1
2016-11-30T10:14:09.878Z,37
2016-11-30T10:15:10.198Z,37.19
2016-11-30T10:16:10.215Z,35.95
2016-11-30T10:17:10.264Z,36.24
2016-11-30T10:18:10.287Z,36.05
2016-11-30T10:19:10.288Z,36.69
2016-11-30T10:20:09.973Z,36.79
2016-11-30T10:21:09.991Z,36.79
2016-11-30T10:22:10.023Z,36.69
2016-11-30T10:23:10.380Z,36.98
2016-11-30T10:24:10.363Z,36.62
2016-11-30T10:25:10.412Z,36.43
2016-11-30T10:26:10.404Z,35.57
2016-11-30T10:27:10.438Z,34.82
2016-11-30T10:28:10.442Z,34.82
2016-11-30T10:29:10.171Z,34.52
2016-11-30T10:30:10.197Z,34.05
2016-11-30T10:31:10.181Z,34.61
2016-11-30T10:32:10.520Z,34.71
2016-11-30T10:33:10.541Z,34.71
2016-11-30T10:34:10.563Z,35.19
2016-11-30T10:35:10.577Z,35.19
2016-11-30T10:36:10.291Z,33.85
2016-11-30T10:37:10.323Z,33.95
2016-11-30T10:38:10.330Z,33.57
2016-11-30T10:39:10.666Z,33.95
2016-11-30T10:40:10.382Z,33.47
2016-11-30T10:41:10.389Z,33.78
2016-11-30T10:42:10.398Z,33.49
2016-11-30T10:43:10.421Z,32.53
2016-11-30T10:44:10.447Z,33.39
2016-11-30T10:45:10.472Z,33.58
2016-11-30T10:46:10.479Z,34.73
2016-11-30T10:47:10.498Z,34.44
2016-11-30T10:48:10.517Z,32.53
2016-11-30T10:49:10.852Z,33.01
2016-11-30T10:50:10.559Z,32.82
2016-11-30T10:51:10.578Z,33.01
2016-11-30T10:52:10.605Z,32.44
2016-11-30T10:53:10.617Z,33.01
2016-11-30T10:54:10.952Z,32.93
2016-11-30T10:55:10.980Z,32.45
2016-11-30T10:56:10.989Z,33.03
2016-11-30T10:57:10.695Z,32.55
2016-11-30T10:58:11.030Z,33.31
2016-11-30T10:59:10.736Z,33.6
2016-11-30T11:00:10.756Z,33.12
2016-11-30T11:01:11.089Z,33.22
2016-11-30T11:02:11.106Z,32.17
2016-11-30T11:03:10.823Z,33.39
2016-11-30T11:04:11.148Z,33.58
2016-11-30T11:05:11.182Z,33.58
2016-11-30T11:06:11.183Z,33.79
2016-11-30T11:07:11.212Z,33.31
2016-11-30T11:08:10.913Z,33.78
2016-11-30T11:09:10.938Z,33.41
2016-11-30T11:10:11.264Z,33.7
2016-11-30T11:11:11.282Z,33.6
2016-11-30T11:12:10.987Z,32.55
2016-11-30T11:13:11.014Z,33.31
2016-11-30T11:14:11.341Z,33.22
2016-11-30T11:15:11.050Z,33.41
2016-11-30T11:16:11.064Z,33.22
2016-11-30T11:17:11.431Z,33.79
2016-11-30T11:18:11.430Z,33.7
2016-11-30T11:19:11.442Z,33.5
2016-11-30T11:20:11.149Z,33.7
2016-11-30T11:21:11.165Z,34.27
2016-11-30T11:22:11.211Z,34.27
2016-11-30T11:23:11.538Z,33.98
2016-11-30T11:24:11.538Z,35.13
2016-11-30T11:25:11.265Z,35.51
2016-11-30T11:26:11.584Z,35.03
2016-11-30T11:27:11.605Z,34.75
2016-11-30T11:28:11.617Z,34.57
2016-11-30T11:29:11.650Z,34.09
2016-11-30T11:30:11.656Z,34.38
2016-11-30T11:31:11.679Z,34.77
2016-11-30T11:32:11.697Z,34.78
2016-11-30T11:33:11.725Z,34.59
2016-11-30T11:34:11.735Z,34.09
2016-11-30T11:35:11.464Z,34.11
2016-11-30T11:36:11.463Z,34.48
2016-11-30T11:37:11.794Z,34.4
2016-11-30T11:38:11.816Z,34.38
2016-11-30T11:39:11.522Z,35.16
2016-11-30T11:40:11.539Z,34.3
2016-11-30T11:41:11.889Z,34.59
2016-11-30T11:42:11.582Z,34.69
2016-11-30T11:43:11.599Z,34.88
2016-11-30T11:44:11.971Z,34.2
2016-11-30T11:45:11.646Z,34.3
2016-11-30T11:46:11.684Z,34.69
2016-11-30T11:47:11.683Z,35.06
2016-11-30T11:48:12.017Z,35.83
2016-11-30T11:49:12.056Z,34.97
2016-11-30T11:50:12.052Z,35.26
2016-11-30T11:51:12.096Z,35.26
2016-11-30T11:52:12.114Z,34.97
2016-11-30T11:53:11.807Z,34.78
2016-11-30T11:54:11.819Z,35.45
2016-11-30T11:55:11.839Z,35.66
2016-11-30T11:56:12.175Z,35.64
2016-11-30T11:57:11.889Z,35.66
2016-11-30T11:58:12.220Z,35.28
2016-11-30T11:59:11.920Z,35.08
2016-11-30T12:00:11.954Z,35.37
2016-11-30T12:01:12.277Z,35.47
2016-11-30T12:02:12.004Z,34.7
2016-11-30T12:03:12.329Z,34.99
2016-11-30T12:04:12.079Z,35.35
2016-11-30T12:05:12.356Z,35.93
2016-11-30T12:06:12.378Z,36.88
2016-11-30T12:07:12.407Z,35.83
2016-11-30T12:08:12.420Z,36.12
2016-11-30T12:09:12.461Z,36.88
2016-11-30T12:10:12.152Z,37.07
2016-11-30T12:11:12.491Z,35.83
2016-11-30T12:12:12.191Z,35.74
2016-11-30T12:13:12.221Z,36.6
2016-11-30T12:14:12.543Z,36.98
2016-11-30T12:15:12.250Z,36.02
2016-11-30T12:16:12.582Z,35.75
2016-11-30T12:17:12.290Z,36.43
2016-11-30T12:18:12.623Z,36.04
2016-11-30T12:19:12.656Z,35.08
2016-11-30T12:20:12.348Z,35.85
2016-11-30T12:21:12.687Z,35.85
2016-11-30T12:22:12.707Z,35.94
2016-11-30T12:23:12.730Z,35.47
2016-11-30T12:24:12.430Z,34.7
2016-11-30T12:25:12.768Z,35.08
2016-11-30T12:26:12.791Z,35.08
2016-11-30T12:27:12.810Z,34.7
2016-11-30T12:28:12.830Z,34.99
2016-11-30T12:29:12.535Z,35.08
2016-11-30T12:30:12.553Z,35.47
2016-11-30T12:31:12.896Z,35.28
2016-11-30T12:32:12.593Z,35.74
2016-11-30T12:33:12.947Z,35.85
2016-11-30T12:34:12.639Z,36.04
2016-11-30T12:35:12.658Z,36.31
2016-11-30T12:36:12.997Z,36.5
2016-11-30T12:37:13.019Z,35.94
2016-11-30T12:38:13.052Z,36.6
2016-11-30T12:39:13.055Z,36.5
2016-11-30T12:40:12.760Z,36.14
2016-11-30T12:41:13.113Z,35.18
2016-11-30T12:42:12.799Z,35.94
2016-11-30T12:43:13.137Z,35.37
2016-11-30T12:44:13.160Z,36.14
2016-11-30T12:45:13.194Z,35.37
2016-11-30T12:46:12.885Z,36.43
2016-11-30T12:47:13.221Z,36.04
2016-11-30T12:48:12.927Z,35.85
2016-11-30T12:49:13.271Z,35.85
2016-11-30T12:50:13.282Z,35.75
2016-11-30T12:51:12.999Z,35.57
2016-11-30T12:52:13.007Z,35.28
2016-11-30T12:53:13.032Z,35.57
2016-11-30T12:54:13.363Z,35.47
2016-11-30T12:55:13.384Z,36.04